sensor_id;sensor_type;location;lat;lon;timestamp;P1;durP1;ratioP1;P2;durP2;ratioP2
13973;SDS011;7060;43.770;4.008;2024-02-21T00:00:06;4.13;;;2.27;;
13973;SDS011;7060;43.770;4.008;2024-02-21T00:02:34;4.00;;;1.67;;
13973;SDS011;7060;43.770;4.008;2024-02-21T00:05:03;4.43;;;2.00;;
13973;SDS011;7060;43.770;4.008;2024-02-21T00:07:31;3.50;;;1.60;;
13973;SDS011;7060;43.770;4.008;2024-02-21T00:09:59;3.17;;;1.87;;
13973;SDS011;7060;43.770;4.008;2024-02-21T00:12:28;4.00;;;2.00;;
13973;SDS011;7060;43.770;4.008;2024-02-21T00:14:56;4.50;;;2.00;;
13973;SDS011;7060;43.770;4.008;2024-02-21T00:17:25;6.80;;;3.20;;
13973;SDS011;7060;43.770;4.008;2024-02-21T00:19:53;3.57;;;2.20;;
13973;SDS011;7060;43.770;4.008;2024-02-21T00:22:22;4.77;;;2.03;;
13973;SDS011;7060;43.770;4.008;2024-02-21T00:24:50;3.67;;;1.80;;
13973;SDS011;7060;43.770;4.008;2024-02-21T00:27:18;4.00;;;1.60;;
13973;SDS011;7060;43.770;4.008;2024-02-21T00:29:46;3.30;;;1.40;;
13973;SDS011;7060;43.770;4.008;2024-02-21T00:32:14;2.30;;;1.33;;
13973;SDS011;7060;43.770;4.008;2024-02-21T00:34:43;2.50;;;1.10;;
13973;SDS011;7060;43.770;4.008;2024-02-21T00:37:11;2.70;;;1.07;;
13973;SDS011;7060;43.770;4.008;2024-02-21T00:39:39;2.10;;;1.27;;
13973;SDS011;7060;43.770;4.008;2024-02-21T00:42:08;2.70;;;1.47;;
13973;SDS011;7060;43.770;4.008;2024-02-21T00:44:36;3.03;;;1.23;;
13973;SDS011;7060;43.770;4.008;2024-02-21T00:47:04;2.13;;;1.07;;
13973;SDS011;7060;43.770;4.008;2024-02-21T00:49:35;2.80;;;1.33;;
13973;SDS011;7060;43.770;4.008;2024-02-21T00:52:08;2.60;;;1.10;;
13973;SDS011;7060;43.770;4.008;2024-02-21T00:54:36;2.47;;;1.10;;
13973;SDS011;7060;43.770;4.008;2024-02-21T00:57:18;2.87;;;1.30;;
13973;SDS011;7060;43.770;4.008;2024-02-21T00:59:46;2.50;;;0.80;;
13973;SDS011;7060;43.770;4.008;2024-02-21T01:02:14;4.83;;;1.20;;
13973;SDS011;7060;43.770;4.008;2024-02-21T01:04:42;2.73;;;1.37;;
13973;SDS011;7060;43.770;4.008;2024-02-21T01:07:12;3.27;;;1.10;;
13973;SDS011;7060;43.770;4.008;2024-02-21T01:09:40;2.07;;;0.93;;
13973;SDS011;7060;43.770;4.008;2024-02-21T01:12:08;3.73;;;1.20;;
13973;SDS011;7060;43.770;4.008;2024-02-21T01:14:39;3.10;;;1.00;;
13973;SDS011;7060;43.770;4.008;2024-02-21T01:17:07;2.30;;;1.20;;
13973;SDS011;7060;43.770;4.008;2024-02-21T01:19:38;3.37;;;1.00;;
13973;SDS011;7060;43.770;4.008;2024-02-21T01:22:08;1.90;;;1.00;;
13973;SDS011;7060;43.770;4.008;2024-02-21T01:24:37;4.03;;;1.20;;
13973;SDS011;7060;43.770;4.008;2024-02-21T01:27:05;3.20;;;1.10;;
13973;SDS011;7060;43.770;4.008;2024-02-21T01:29:33;2.40;;;0.97;;
13973;SDS011;7060;43.770;4.008;2024-02-21T01:32:01;3.47;;;1.03;;
13973;SDS011;7060;43.770;4.008;2024-02-21T01:34:29;4.53;;;1.13;;
13973;SDS011;7060;43.770;4.008;2024-02-21T01:36:58;2.17;;;0.90;;
13973;SDS011;7060;43.770;4.008;2024-02-21T01:39:31;3.17;;;1.23;;
13973;SDS011;7060;43.770;4.008;2024-02-21T01:42:00;2.30;;;1.10;;
13973;SDS011;7060;43.770;4.008;2024-02-21T01:44:28;2.20;;;1.33;;
13973;SDS011;7060;43.770;4.008;2024-02-21T01:46:56;4.43;;;1.20;;
13973;SDS011;7060;43.770;4.008;2024-02-21T01:49:24;4.10;;;1.73;;
13973;SDS011;7060;43.770;4.008;2024-02-21T01:51:53;3.13;;;1.43;;
13973;SDS011;7060;43.770;4.008;2024-02-21T01:54:22;2.00;;;1.30;;
13973;SDS011;7060;43.770;4.008;2024-02-21T01:56:50;3.07;;;1.50;;
13973;SDS011;7060;43.770;4.008;2024-02-21T01:59:20;3.47;;;1.20;;
13973;SDS011;7060;43.770;4.008;2024-02-21T02:01:49;1.97;;;1.23;;
13973;SDS011;7060;43.770;4.008;2024-02-21T02:04:19;3.13;;;1.30;;
13973;SDS011;7060;43.770;4.008;2024-02-21T02:06:48;2.63;;;1.20;;
13973;SDS011;7060;43.770;4.008;2024-02-21T02:09:16;3.83;;;1.50;;
13973;SDS011;7060;43.770;4.008;2024-02-21T02:11:44;2.53;;;1.10;;
13973;SDS011;7060;43.770;4.008;2024-02-21T02:14:12;2.23;;;1.10;;
13973;SDS011;7060;43.770;4.008;2024-02-21T02:16:42;2.17;;;1.17;;
13973;SDS011;7060;43.770;4.008;2024-02-21T02:19:13;3.53;;;0.80;;
13973;SDS011;7060;43.770;4.008;2024-02-21T02:21:44;4.23;;;1.40;;
13973;SDS011;7060;43.770;4.008;2024-02-21T02:24:21;2.73;;;1.00;;
13973;SDS011;7060;43.770;4.008;2024-02-21T02:26:51;4.60;;;1.00;;
13973;SDS011;7060;43.770;4.008;2024-02-21T02:29:19;2.47;;;1.20;;
13973;SDS011;7060;43.770;4.008;2024-02-21T02:31:47;1.60;;;1.20;;
13973;SDS011;7060;43.770;4.008;2024-02-21T02:34:16;3.93;;;1.47;;
13973;SDS011;7060;43.770;4.008;2024-02-21T02:36:44;3.13;;;1.03;;
13973;SDS011;7060;43.770;4.008;2024-02-21T02:39:15;2.73;;;1.20;;
13973;SDS011;7060;43.770;4.008;2024-02-21T02:41:44;3.90;;;1.40;;
13973;SDS011;7060;43.770;4.008;2024-02-21T02:44:12;2.57;;;1.00;;
13973;SDS011;7060;43.770;4.008;2024-02-21T02:46:40;3.07;;;1.10;;
13973;SDS011;7060;43.770;4.008;2024-02-21T02:49:08;1.70;;;1.10;;
13973;SDS011;7060;43.770;4.008;2024-02-21T02:51:36;3.23;;;1.03;;
13973;SDS011;7060;43.770;4.008;2024-02-21T02:54:04;2.20;;;1.13;;
13973;SDS011;7060;43.770;4.008;2024-02-21T02:56:32;3.17;;;1.50;;
13973;SDS011;7060;43.770;4.008;2024-02-21T02:59:01;3.60;;;1.00;;
13973;SDS011;7060;43.770;4.008;2024-02-21T03:01:33;1.63;;;0.97;;
13973;SDS011;7060;43.770;4.008;2024-02-21T03:04:01;3.30;;;1.03;;
13973;SDS011;7060;43.770;4.008;2024-02-21T03:06:29;2.43;;;1.10;;
13973;SDS011;7060;43.770;4.008;2024-02-21T03:08:57;2.30;;;0.90;;
13973;SDS011;7060;43.770;4.008;2024-02-21T03:11:27;1.43;;;0.90;;
13973;SDS011;7060;43.770;4.008;2024-02-21T03:13:57;2.50;;;0.80;;
13973;SDS011;7060;43.770;4.008;2024-02-21T03:16:26;2.87;;;1.20;;
13973;SDS011;7060;43.770;4.008;2024-02-21T03:18:54;2.87;;;1.40;;
13973;SDS011;7060;43.770;4.008;2024-02-21T03:21:22;2.43;;;1.33;;
13973;SDS011;7060;43.770;4.008;2024-02-21T03:23:50;3.43;;;1.23;;
13973;SDS011;7060;43.770;4.008;2024-02-21T03:26:18;2.53;;;1.10;;
13973;SDS011;7060;43.770;4.008;2024-02-21T03:28:46;5.27;;;1.20;;
13973;SDS011;7060;43.770;4.008;2024-02-21T03:31:15;3.47;;;1.23;;
13973;SDS011;7060;43.770;4.008;2024-02-21T03:33:44;3.97;;;1.27;;
13973;SDS011;7060;43.770;4.008;2024-02-21T03:36:13;2.43;;;1.00;;
13973;SDS011;7060;43.770;4.008;2024-02-21T03:38:42;3.70;;;1.27;;
13973;SDS011;7060;43.770;4.008;2024-02-21T03:41:10;4.47;;;1.40;;
13973;SDS011;7060;43.770;4.008;2024-02-21T03:43:38;3.30;;;1.50;;
13973;SDS011;7060;43.770;4.008;2024-02-21T03:46:06;3.03;;;1.57;;
13973;SDS011;7060;43.770;4.008;2024-02-21T03:48:35;2.93;;;1.47;;
13973;SDS011;7060;43.770;4.008;2024-02-21T03:51:05;2.37;;;1.47;;
13973;SDS011;7060;43.770;4.008;2024-02-21T03:53:33;3.37;;;1.20;;
13973;SDS011;7060;43.770;4.008;2024-02-21T03:56:01;3.40;;;1.10;;
13973;SDS011;7060;43.770;4.008;2024-02-21T03:58:31;2.40;;;1.20;;
13973;SDS011;7060;43.770;4.008;2024-02-21T04:00:59;4.07;;;1.60;;
13973;SDS011;7060;43.770;4.008;2024-02-21T04:03:28;2.83;;;1.30;;
13973;SDS011;7060;43.770;4.008;2024-02-21T04:05:56;3.37;;;1.23;;
13973;SDS011;7060;43.770;4.008;2024-02-21T04:08:26;3.83;;;1.20;;
13973;SDS011;7060;43.770;4.008;2024-02-21T04:10:54;2.23;;;0.90;;
13973;SDS011;7060;43.770;4.008;2024-02-21T04:13:22;2.87;;;1.23;;
13973;SDS011;7060;43.770;4.008;2024-02-21T04:15:50;2.70;;;1.10;;
13973;SDS011;7060;43.770;4.008;2024-02-21T04:18:18;3.13;;;1.43;;
13973;SDS011;7060;43.770;4.008;2024-02-21T04:20:46;3.47;;;1.00;;
13973;SDS011;7060;43.770;4.008;2024-02-21T04:23:14;3.03;;;1.27;;
13973;SDS011;7060;43.770;4.008;2024-02-21T04:25:44;3.13;;;1.33;;
13973;SDS011;7060;43.770;4.008;2024-02-21T04:28:12;2.53;;;1.03;;
13973;SDS011;7060;43.770;4.008;2024-02-21T04:30:40;3.43;;;1.20;;
13973;SDS011;7060;43.770;4.008;2024-02-21T04:33:08;4.13;;;1.30;;
13973;SDS011;7060;43.770;4.008;2024-02-21T04:35:36;1.77;;;0.90;;
13973;SDS011;7060;43.770;4.008;2024-02-21T04:38:05;1.80;;;0.90;;
13973;SDS011;7060;43.770;4.008;2024-02-21T04:40:34;3.73;;;1.20;;
13973;SDS011;7060;43.770;4.008;2024-02-21T04:43:04;3.90;;;1.37;;
13973;SDS011;7060;43.770;4.008;2024-02-21T04:45:31;2.65;;;1.25;;
13973;SDS011;7060;43.770;4.008;2024-02-21T04:47:59;3.53;;;1.00;;
13973;SDS011;7060;43.770;4.008;2024-02-21T04:50:27;2.40;;;1.00;;
13973;SDS011;7060;43.770;4.008;2024-02-21T04:52:56;1.83;;;0.90;;
13973;SDS011;7060;43.770;4.008;2024-02-21T04:55:24;2.03;;;0.87;;
13973;SDS011;7060;43.770;4.008;2024-02-21T04:57:52;1.73;;;0.70;;
13973;SDS011;7060;43.770;4.008;2024-02-21T05:00:21;3.80;;;0.80;;
13973;SDS011;7060;43.770;4.008;2024-02-21T05:02:49;1.93;;;0.70;;
13973;SDS011;7060;43.770;4.008;2024-02-21T05:05:17;1.93;;;0.87;;
13973;SDS011;7060;43.770;4.008;2024-02-21T05:07:45;1.37;;;0.70;;
13973;SDS011;7060;43.770;4.008;2024-02-21T05:10:14;1.73;;;0.80;;
13973;SDS011;7060;43.770;4.008;2024-02-21T05:12:44;2.83;;;0.70;;
13973;SDS011;7060;43.770;4.008;2024-02-21T05:15:12;2.87;;;0.90;;
13973;SDS011;7060;43.770;4.008;2024-02-21T05:17:41;2.50;;;0.90;;
13973;SDS011;7060;43.770;4.008;2024-02-21T05:20:10;3.60;;;0.90;;
13973;SDS011;7060;43.770;4.008;2024-02-21T05:22:38;1.80;;;0.90;;
13973;SDS011;7060;43.770;4.008;2024-02-21T05:25:07;4.20;;;1.10;;
13973;SDS011;7060;43.770;4.008;2024-02-21T05:27:35;2.73;;;1.20;;
13973;SDS011;7060;43.770;4.008;2024-02-21T05:30:05;8.23;;;3.50;;
13973;SDS011;7060;43.770;4.008;2024-02-21T05:32:34;8.00;;;3.40;;
13973;SDS011;7060;43.770;4.008;2024-02-21T05:35:03;4.23;;;2.47;;
13973;SDS011;7060;43.770;4.008;2024-02-21T05:37:32;4.50;;;2.30;;
13973;SDS011;7060;43.770;4.008;2024-02-21T05:40:00;2.93;;;1.40;;
13973;SDS011;7060;43.770;4.008;2024-02-21T05:42:28;3.00;;;1.23;;
13973;SDS011;7060;43.770;4.008;2024-02-21T05:44:56;2.13;;;1.00;;
13973;SDS011;7060;43.770;4.008;2024-02-21T05:47:23;2.73;;;1.10;;
13973;SDS011;7060;43.770;4.008;2024-02-21T05:49:52;2.47;;;0.80;;
13973;SDS011;7060;43.770;4.008;2024-02-21T05:52:22;2.90;;;0.90;;
13973;SDS011;7060;43.770;4.008;2024-02-21T05:54:50;2.27;;;1.13;;
13973;SDS011;7060;43.770;4.008;2024-02-21T05:57:18;2.73;;;1.10;;
13973;SDS011;7060;43.770;4.008;2024-02-21T05:59:46;3.63;;;0.90;;
13973;SDS011;7060;43.770;4.008;2024-02-21T06:02:14;3.80;;;1.27;;
13973;SDS011;7060;43.770;4.008;2024-02-21T06:04:42;2.67;;;1.10;;
13973;SDS011;7060;43.770;4.008;2024-02-21T06:07:11;2.27;;;0.90;;
13973;SDS011;7060;43.770;4.008;2024-02-21T06:09:40;2.97;;;0.80;;
13973;SDS011;7060;43.770;4.008;2024-02-21T06:12:08;8.13;;;1.70;;
13973;SDS011;7060;43.770;4.008;2024-02-21T06:14:37;4.33;;;1.50;;
13973;SDS011;7060;43.770;4.008;2024-02-21T06:17:05;3.33;;;1.17;;
13973;SDS011;7060;43.770;4.008;2024-02-21T06:19:33;3.03;;;1.00;;
13973;SDS011;7060;43.770;4.008;2024-02-21T06:22:01;4.40;;;0.87;;
13973;SDS011;7060;43.770;4.008;2024-02-21T06:24:34;2.23;;;1.10;;
13973;SDS011;7060;43.770;4.008;2024-02-21T06:27:04;5.87;;;1.47;;
13973;SDS011;7060;43.770;4.008;2024-02-21T06:29:36;3.67;;;1.30;;
13973;SDS011;7060;43.770;4.008;2024-02-21T06:32:04;3.13;;;1.07;;
13973;SDS011;7060;43.770;4.008;2024-02-21T06:34:33;2.03;;;1.10;;
13973;SDS011;7060;43.770;4.008;2024-02-21T06:37:01;5.03;;;0.90;;
13973;SDS011;7060;43.770;4.008;2024-02-21T06:39:30;3.27;;;0.90;;
13973;SDS011;7060;43.770;4.008;2024-02-21T06:41:58;1.83;;;0.77;;
13973;SDS011;7060;43.770;4.008;2024-02-21T06:44:30;2.57;;;0.90;;
13973;SDS011;7060;43.770;4.008;2024-02-21T06:47:03;3.27;;;0.90;;
13973;SDS011;7060;43.770;4.008;2024-02-21T06:49:31;1.50;;;0.93;;
13973;SDS011;7060;43.770;4.008;2024-02-21T06:51:59;3.03;;;1.10;;
13973;SDS011;7060;43.770;4.008;2024-02-21T06:54:27;2.90;;;0.90;;
13973;SDS011;7060;43.770;4.008;2024-02-21T06:56:55;1.53;;;0.83;;
13973;SDS011;7060;43.770;4.008;2024-02-21T06:59:23;2.13;;;0.80;;
13973;SDS011;7060;43.770;4.008;2024-02-21T07:01:52;2.00;;;0.80;;
13973;SDS011;7060;43.770;4.008;2024-02-21T07:04:22;5.13;;;0.90;;
13973;SDS011;7060;43.770;4.008;2024-02-21T07:06:50;1.57;;;0.90;;
13973;SDS011;7060;43.770;4.008;2024-02-21T07:09:18;2.07;;;1.07;;
13973;SDS011;7060;43.770;4.008;2024-02-21T07:11:46;1.90;;;0.93;;
13973;SDS011;7060;43.770;4.008;2024-02-21T07:14:14;2.73;;;0.97;;
13973;SDS011;7060;43.770;4.008;2024-02-21T07:16:42;1.43;;;0.77;;
13973;SDS011;7060;43.770;4.008;2024-02-21T07:19:12;1.50;;;0.70;;
13973;SDS011;7060;43.770;4.008;2024-02-21T07:21:40;2.27;;;0.80;;
13973;SDS011;7060;43.770;4.008;2024-02-21T07:24:08;1.73;;;0.80;;
13973;SDS011;7060;43.770;4.008;2024-02-21T07:26:36;1.80;;;0.60;;
13973;SDS011;7060;43.770;4.008;2024-02-21T07:29:04;1.53;;;0.83;;
13973;SDS011;7060;43.770;4.008;2024-02-21T07:31:38;1.17;;;1.03;;
13973;SDS011;7060;43.770;4.008;2024-02-21T07:34:06;1.50;;;0.87;;
13973;SDS011;7060;43.770;4.008;2024-02-21T07:36:36;1.30;;;0.63;;
13973;SDS011;7060;43.770;4.008;2024-02-21T07:39:05;2.93;;;0.90;;
13973;SDS011;7060;43.770;4.008;2024-02-21T07:41:33;2.23;;;0.97;;
13973;SDS011;7060;43.770;4.008;2024-02-21T07:44:01;3.07;;;1.00;;
13973;SDS011;7060;43.770;4.008;2024-02-21T07:46:30;4.20;;;0.93;;
13973;SDS011;7060;43.770;4.008;2024-02-21T07:48:58;2.20;;;0.87;;
13973;SDS011;7060;43.770;4.008;2024-02-21T07:51:28;4.57;;;0.80;;
13973;SDS011;7060;43.770;4.008;2024-02-21T07:53:58;2.33;;;1.00;;
13973;SDS011;7060;43.770;4.008;2024-02-21T07:56:27;3.47;;;1.30;;
13973;SDS011;7060;43.770;4.008;2024-02-21T07:58:55;2.17;;;1.00;;
13973;SDS011;7060;43.770;4.008;2024-02-21T08:01:24;2.67;;;1.07;;
13973;SDS011;7060;43.770;4.008;2024-02-21T08:03:52;2.17;;;1.10;;
13973;SDS011;7060;43.770;4.008;2024-02-21T08:06:20;1.80;;;0.80;;
13973;SDS011;7060;43.770;4.008;2024-02-21T08:08:48;2.80;;;1.00;;
13973;SDS011;7060;43.770;4.008;2024-02-21T08:11:18;1.50;;;0.90;;
13973;SDS011;7060;43.770;4.008;2024-02-21T08:13:46;1.30;;;0.70;;
13973;SDS011;7060;43.770;4.008;2024-02-21T08:16:14;1.80;;;0.83;;
13973;SDS011;7060;43.770;4.008;2024-02-21T08:18:43;2.40;;;1.13;;
13973;SDS011;7060;43.770;4.008;2024-02-21T08:21:11;2.90;;;0.90;;
13973;SDS011;7060;43.770;4.008;2024-02-21T08:23:39;3.23;;;1.00;;
13973;SDS011;7060;43.770;4.008;2024-02-21T08:26:07;3.67;;;1.00;;
13973;SDS011;7060;43.770;4.008;2024-02-21T08:28:37;2.50;;;1.20;;
13973;SDS011;7060;43.770;4.008;2024-02-21T08:31:05;2.83;;;1.02;;
13973;SDS011;7060;43.770;4.008;2024-02-21T08:33:33;4.47;;;1.10;;
13973;SDS011;7060;43.770;4.008;2024-02-21T08:36:01;2.80;;;1.17;;
13973;SDS011;7060;43.770;4.008;2024-02-21T08:38:29;2.17;;;0.90;;
13973;SDS011;7060;43.770;4.008;2024-02-21T08:40:57;1.33;;;0.70;;
13973;SDS011;7060;43.770;4.008;2024-02-21T08:43:26;2.67;;;0.80;;
13973;SDS011;7060;43.770;4.008;2024-02-21T08:45:56;1.60;;;0.93;;
13973;SDS011;7060;43.770;4.008;2024-02-21T08:48:24;1.03;;;0.60;;
13973;SDS011;7060;43.770;4.008;2024-02-21T08:50:52;2.53;;;0.70;;
13973;SDS011;7060;43.770;4.008;2024-02-21T08:53:21;1.13;;;0.67;;
13973;SDS011;7060;43.770;4.008;2024-02-21T08:55:49;1.37;;;0.70;;
13973;SDS011;7060;43.770;4.008;2024-02-21T08:58:17;1.20;;;0.83;;
13973;SDS011;7060;43.770;4.008;2024-02-21T09:00:47;1.43;;;0.63;;
13973;SDS011;7060;43.770;4.008;2024-02-21T09:03:17;2.97;;;0.70;;
13973;SDS011;7060;43.770;4.008;2024-02-21T09:05:46;2.20;;;0.70;;
13973;SDS011;7060;43.770;4.008;2024-02-21T09:08:14;2.60;;;0.77;;
13973;SDS011;7060;43.770;4.008;2024-02-21T09:10:42;2.27;;;0.87;;
13973;SDS011;7060;43.770;4.008;2024-02-21T09:13:10;2.70;;;1.20;;
13973;SDS011;7060;43.770;4.008;2024-02-21T09:15:38;3.93;;;1.10;;
13973;SDS011;7060;43.770;4.008;2024-02-21T09:18:06;1.77;;;0.60;;
13973;SDS011;7060;43.770;4.008;2024-02-21T09:20:35;1.10;;;0.50;;
13973;SDS011;7060;43.770;4.008;2024-02-21T09:23:03;3.00;;;0.70;;
13973;SDS011;7060;43.770;4.008;2024-02-21T09:25:32;1.97;;;0.77;;
13973;SDS011;7060;43.770;4.008;2024-02-21T09:28:00;2.87;;;0.80;;
13973;SDS011;7060;43.770;4.008;2024-02-21T09:30:29;2.40;;;0.90;;
13973;SDS011;7060;43.770;4.008;2024-02-21T09:32:57;2.03;;;0.73;;
13973;SDS011;7060;43.770;4.008;2024-02-21T09:35:27;2.50;;;1.10;;
13973;SDS011;7060;43.770;4.008;2024-02-21T09:37:57;3.87;;;1.00;;
13973;SDS011;7060;43.770;4.008;2024-02-21T09:40:26;3.00;;;0.90;;
13973;SDS011;7060;43.770;4.008;2024-02-21T09:42:56;1.83;;;1.07;;
13973;SDS011;7060;43.770;4.008;2024-02-21T09:45:32;4.13;;;1.20;;
13973;SDS011;7060;43.770;4.008;2024-02-21T09:48:08;2.43;;;1.47;;
13973;SDS011;7060;43.770;4.008;2024-02-21T09:51:01;2.70;;;1.10;;
13973;SDS011;7060;43.770;4.008;2024-02-21T09:53:31;1.77;;;1.10;;
13973;SDS011;7060;43.770;4.008;2024-02-21T09:56:00;4.30;;;1.13;;
13973;SDS011;7060;43.770;4.008;2024-02-21T09:58:28;2.87;;;1.30;;
13973;SDS011;7060;43.770;4.008;2024-02-21T10:00:56;2.67;;;1.40;;
13973;SDS011;7060;43.770;4.008;2024-02-21T10:03:29;4.03;;;1.50;;
13973;SDS011;7060;43.770;4.008;2024-02-21T10:05:58;4.33;;;1.67;;
13973;SDS011;7060;43.770;4.008;2024-02-21T10:08:27;3.53;;;1.53;;
13973;SDS011;7060;43.770;4.008;2024-02-21T10:10:57;4.93;;;1.40;;
13973;SDS011;7060;43.770;4.008;2024-02-21T10:13:27;3.83;;;1.33;;
13973;SDS011;7060;43.770;4.008;2024-02-21T10:16:02;3.80;;;1.53;;
13973;SDS011;7060;43.770;4.008;2024-02-21T10:18:31;3.37;;;1.10;;
13973;SDS011;7060;43.770;4.008;2024-02-21T10:21:01;2.67;;;1.40;;
13973;SDS011;7060;43.770;4.008;2024-02-21T10:23:29;3.33;;;1.10;;
13973;SDS011;7060;43.770;4.008;2024-02-21T10:26:10;3.43;;;1.00;;
13973;SDS011;7060;43.770;4.008;2024-02-21T10:28:38;4.10;;;0.90;;
13973;SDS011;7060;43.770;4.008;2024-02-21T10:31:08;2.10;;;1.00;;
13973;SDS011;7060;43.770;4.008;2024-02-21T10:33:37;2.60;;;1.37;;
13973;SDS011;7060;43.770;4.008;2024-02-21T10:36:06;3.23;;;0.93;;
13973;SDS011;7060;43.770;4.008;2024-02-21T10:38:36;3.23;;;1.00;;
13973;SDS011;7060;43.770;4.008;2024-02-21T10:41:05;2.87;;;1.17;;
13973;SDS011;7060;43.770;4.008;2024-02-21T10:43:37;2.33;;;1.13;;
13973;SDS011;7060;43.770;4.008;2024-02-21T10:46:08;3.60;;;0.97;;
13973;SDS011;7060;43.770;4.008;2024-02-21T10:48:41;2.47;;;1.00;;
13973;SDS011;7060;43.770;4.008;2024-02-21T10:51:14;2.70;;;1.00;;
13973;SDS011;7060;43.770;4.008;2024-02-21T10:53:46;6.20;;;1.27;;
13973;SDS011;7060;43.770;4.008;2024-02-21T10:56:26;3.23;;;1.03;;
13973;SDS011;7060;43.770;4.008;2024-02-21T10:58:58;2.83;;;1.03;;
13973;SDS011;7060;43.770;4.008;2024-02-21T11:01:29;3.50;;;1.30;;
13973;SDS011;7060;43.770;4.008;2024-02-21T11:03:59;2.47;;;1.00;;
13973;SDS011;7060;43.770;4.008;2024-02-21T11:06:30;2.83;;;0.93;;
13973;SDS011;7060;43.770;4.008;2024-02-21T11:09:00;4.47;;;1.30;;
13973;SDS011;7060;43.770;4.008;2024-02-21T11:11:32;4.00;;;1.90;;
13973;SDS011;7060;43.770;4.008;2024-02-21T11:14:08;4.63;;;1.43;;
13973;SDS011;7060;43.770;4.008;2024-02-21T11:16:38;3.63;;;1.50;;
13973;SDS011;7060;43.770;4.008;2024-02-21T11:19:07;3.30;;;1.40;;
13973;SDS011;7060;43.770;4.008;2024-02-21T11:21:36;3.63;;;1.80;;
13973;SDS011;7060;43.770;4.008;2024-02-21T11:24:05;3.53;;;1.63;;
13973;SDS011;7060;43.770;4.008;2024-02-21T11:26:33;6.73;;;1.93;;
13973;SDS011;7060;43.770;4.008;2024-02-21T11:29:05;4.50;;;1.97;;
13973;SDS011;7060;43.770;4.008;2024-02-21T11:31:40;4.17;;;2.00;;
13973;SDS011;7060;43.770;4.008;2024-02-21T11:34:09;4.80;;;2.43;;
13973;SDS011;7060;43.770;4.008;2024-02-21T11:36:46;3.73;;;2.30;;
13973;SDS011;7060;43.770;4.008;2024-02-21T11:39:19;6.47;;;3.83;;
13973;SDS011;7060;43.770;4.008;2024-02-21T11:42:00;6.17;;;3.57;;
13973;SDS011;7060;43.770;4.008;2024-02-21T11:44:29;3.70;;;2.20;;
13973;SDS011;7060;43.770;4.008;2024-02-21T11:46:58;5.13;;;2.37;;
13973;SDS011;7060;43.770;4.008;2024-02-21T11:49:28;5.80;;;2.77;;
13973;SDS011;7060;43.770;4.008;2024-02-21T11:51:59;5.17;;;2.60;;
13973;SDS011;7060;43.770;4.008;2024-02-21T11:54:30;3.30;;;1.83;;
13973;SDS011;7060;43.770;4.008;2024-02-21T11:56:58;2.50;;;1.80;;
13973;SDS011;7060;43.770;4.008;2024-02-21T11:59:26;3.30;;;1.60;;
13973;SDS011;7060;43.770;4.008;2024-02-21T12:01:54;4.97;;;1.83;;
13973;SDS011;7060;43.770;4.008;2024-02-21T12:04:24;7.27;;;2.03;;
13973;SDS011;7060;43.770;4.008;2024-02-21T12:06:52;4.23;;;1.80;;
13973;SDS011;7060;43.770;4.008;2024-02-21T12:09:22;4.93;;;2.77;;
13973;SDS011;7060;43.770;4.008;2024-02-21T12:11:57;2.50;;;1.20;;
13973;SDS011;7060;43.770;4.008;2024-02-21T12:14:27;3.17;;;1.40;;
13973;SDS011;7060;43.770;4.008;2024-02-21T12:16:56;3.03;;;1.20;;
13973;SDS011;7060;43.770;4.008;2024-02-21T12:19:28;6.00;;;1.40;;
13973;SDS011;7060;43.770;4.008;2024-02-21T12:21:56;2.37;;;1.00;;
13973;SDS011;7060;43.770;4.008;2024-02-21T12:24:27;5.60;;;1.70;;
13973;SDS011;7060;43.770;4.008;2024-02-21T12:26:57;3.13;;;1.40;;
13973;SDS011;7060;43.770;4.008;2024-02-21T12:29:26;2.97;;;1.23;;
13973;SDS011;7060;43.770;4.008;2024-02-21T12:31:56;3.50;;;1.60;;
13973;SDS011;7060;43.770;4.008;2024-02-21T12:34:24;4.00;;;1.50;;
13973;SDS011;7060;43.770;4.008;2024-02-21T12:37:11;3.13;;;1.57;;
13973;SDS011;7060;43.770;4.008;2024-02-21T12:39:40;2.23;;;1.10;;
13973;SDS011;7060;43.770;4.008;2024-02-21T12:42:08;2.20;;;1.30;;
13973;SDS011;7060;43.770;4.008;2024-02-21T12:44:38;6.53;;;0.97;;
13973;SDS011;7060;43.770;4.008;2024-02-21T12:47:06;4.77;;;1.90;;
13973;SDS011;7060;43.770;4.008;2024-02-21T12:49:34;2.73;;;1.40;;
13973;SDS011;7060;43.770;4.008;2024-02-21T12:52:04;4.53;;;1.70;;
13973;SDS011;7060;43.770;4.008;2024-02-21T12:54:34;5.23;;;1.70;;
13973;SDS011;7060;43.770;4.008;2024-02-21T12:57:02;14.87;;;2.30;;
13973;SDS011;7060;43.770;4.008;2024-02-21T12:59:30;6.63;;;1.57;;
13973;SDS011;7060;43.770;4.008;2024-02-21T13:01:58;2.43;;;1.20;;
13973;SDS011;7060;43.770;4.008;2024-02-21T13:04:26;4.03;;;1.50;;
13973;SDS011;7060;43.770;4.008;2024-02-21T13:06:55;2.27;;;1.50;;
13973;SDS011;7060;43.770;4.008;2024-02-21T13:09:23;4.70;;;1.70;;
13973;SDS011;7060;43.770;4.008;2024-02-21T13:11:52;5.07;;;1.67;;
13973;SDS011;7060;43.770;4.008;2024-02-21T13:14:20;3.80;;;1.43;;
13973;SDS011;7060;43.770;4.008;2024-02-21T13:16:49;5.27;;;1.40;;
13973;SDS011;7060;43.770;4.008;2024-02-21T13:19:17;3.43;;;1.23;;
13973;SDS011;7060;43.770;4.008;2024-02-21T13:21:45;2.63;;;1.40;;
13973;SDS011;7060;43.770;4.008;2024-02-21T13:24:13;3.47;;;1.93;;
13973;SDS011;7060;43.770;4.008;2024-02-21T13:26:41;3.33;;;1.97;;
13973;SDS011;7060;43.770;4.008;2024-02-21T13:29:10;3.90;;;1.80;;
13973;SDS011;7060;43.770;4.008;2024-02-21T13:31:38;3.83;;;2.27;;
13973;SDS011;7060;43.770;4.008;2024-02-21T13:34:06;3.23;;;2.30;;
13973;SDS011;7060;43.770;4.008;2024-02-21T13:36:38;3.73;;;2.10;;
13973;SDS011;7060;43.770;4.008;2024-02-21T13:39:06;3.63;;;2.23;;
13973;SDS011;7060;43.770;4.008;2024-02-21T13:41:39;4.10;;;2.10;;
13973;SDS011;7060;43.770;4.008;2024-02-21T13:44:07;4.97;;;2.10;;
13973;SDS011;7060;43.770;4.008;2024-02-21T13:46:38;2.73;;;1.70;;
13973;SDS011;7060;43.770;4.008;2024-02-21T13:49:06;3.60;;;1.80;;
13973;SDS011;7060;43.770;4.008;2024-02-21T13:51:35;4.27;;;1.70;;
13973;SDS011;7060;43.770;4.008;2024-02-21T13:54:03;3.93;;;1.97;;
13973;SDS011;7060;43.770;4.008;2024-02-21T13:56:32;2.20;;;1.60;;
13973;SDS011;7060;43.770;4.008;2024-02-21T13:59:01;3.23;;;1.23;;
13973;SDS011;7060;43.770;4.008;2024-02-21T14:01:30;3.33;;;1.60;;
13973;SDS011;7060;43.770;4.008;2024-02-21T14:04:01;5.27;;;1.83;;
13973;SDS011;7060;43.770;4.008;2024-02-21T14:06:30;3.20;;;1.53;;
13973;SDS011;7060;43.770;4.008;2024-02-21T14:08:58;3.30;;;1.60;;
13973;SDS011;7060;43.770;4.008;2024-02-21T14:11:26;3.20;;;1.57;;
13973;SDS011;7060;43.770;4.008;2024-02-21T14:13:57;4.40;;;1.80;;
13973;SDS011;7060;43.770;4.008;2024-02-21T14:16:25;2.60;;;1.40;;
13973;SDS011;7060;43.770;4.008;2024-02-21T14:18:53;3.50;;;1.60;;
13973;SDS011;7060;43.770;4.008;2024-02-21T14:21:23;4.80;;;1.83;;
13973;SDS011;7060;43.770;4.008;2024-02-21T14:23:51;3.97;;;1.83;;
13973;SDS011;7060;43.770;4.008;2024-02-21T14:26:19;3.00;;;1.40;;
13973;SDS011;7060;43.770;4.008;2024-02-21T14:28:48;5.57;;;2.20;;
13973;SDS011;7060;43.770;4.008;2024-02-21T14:31:16;3.90;;;1.67;;
13973;SDS011;7060;43.770;4.008;2024-02-21T14:33:44;3.83;;;1.77;;
13973;SDS011;7060;43.770;4.008;2024-02-21T14:36:12;5.07;;;1.70;;
13973;SDS011;7060;43.770;4.008;2024-02-21T14:38:43;3.57;;;1.53;;
13973;SDS011;7060;43.770;4.008;2024-02-21T14:41:11;3.10;;;1.30;;
13973;SDS011;7060;43.770;4.008;2024-02-21T14:43:39;4.73;;;1.40;;
13973;SDS011;7060;43.770;4.008;2024-02-21T14:46:07;3.83;;;1.87;;
13973;SDS011;7060;43.770;4.008;2024-02-21T14:48:35;2.53;;;1.30;;
13973;SDS011;7060;43.770;4.008;2024-02-21T14:51:04;4.47;;;2.10;;
13973;SDS011;7060;43.770;4.008;2024-02-21T14:53:32;8.33;;;2.43;;
13973;SDS011;7060;43.770;4.008;2024-02-21T14:56:01;5.50;;;2.73;;
13973;SDS011;7060;43.770;4.008;2024-02-21T14:58:30;7.93;;;2.30;;
13973;SDS011;7060;43.770;4.008;2024-02-21T15:00:58;7.77;;;2.60;;
13973;SDS011;7060;43.770;4.008;2024-02-21T15:03:26;4.60;;;2.37;;
13973;SDS011;7060;43.770;4.008;2024-02-21T15:05:55;3.67;;;2.27;;
13973;SDS011;7060;43.770;4.008;2024-02-21T15:08:24;4.47;;;2.37;;
13973;SDS011;7060;43.770;4.008;2024-02-21T15:10:54;6.93;;;3.03;;